Terminal Aerodrome Forecast
Issued by NWS

Home | Current Version | Previous Version | Text Only | Print | Product List | Glossary On
Versions: 1 2 3 4 5 6 7 8 9 10 11 12 13 14 15 16 17
000
FTUS43 KFGF 171739
TAFBJI
TAF
KBJI 171739Z 1718/1818 29010G18KT P6SM BKN025
     FM172100 29012G20KT P6SM FEW150
     FM180000 27008KT P6SM FEW250
     FM180600 24004KT P6SM SCT090
     FM180800 VRB03KT P6SM BKN040
     FM181400 10010KT 2SM -SN BR BKN020 OVC030=

USA.gov is the U.S. government's official web portal to all federal, state and local government web resources and services.